createdAt,value
2018-10-19T00:00:10.566Z,20.60
2018-10-19T00:02:38.125Z,20.60
2018-10-19T00:05:05.857Z,20.60
2018-10-19T00:07:33.427Z,20.60
2018-10-19T00:10:00.997Z,20.60
2018-10-19T00:12:28.572Z,20.60
2018-10-19T00:14:56.466Z,20.60
2018-10-19T00:17:24.046Z,20.60
2018-10-19T00:19:51.853Z,20.60
2018-10-19T00:22:19.605Z,20.60
2018-10-19T00:24:47.534Z,20.60
2018-10-19T00:27:15.600Z,20.60
2018-10-19T00:29:43.734Z,20.60
2018-10-19T00:32:11.682Z,20.60
2018-10-19T00:34:39.248Z,20.60
2018-10-19T00:37:07.018Z,20.60
2018-10-19T00:39:34.599Z,20.60
2018-10-19T00:42:02.381Z,20.60
2018-10-19T00:44:29.924Z,20.60
2018-10-19T00:46:57.534Z,20.60
2018-10-19T00:49:25.369Z,20.50
2018-10-19T00:51:53.039Z,20.50
2018-10-19T00:54:20.792Z,20.60
2018-10-19T00:56:48.616Z,20.50
2018-10-19T00:59:16.532Z,20.60
2018-10-19T01:01:44.424Z,20.60
2018-10-19T01:04:12.041Z,20.50
2018-10-19T01:06:39.673Z,20.60
2018-10-19T01:09:07.516Z,20.60
2018-10-19T01:11:35.043Z,20.60
2018-10-19T01:14:02.640Z,20.60
2018-10-19T01:16:30.187Z,20.60
2018-10-19T01:18:57.792Z,20.60
2018-10-19T01:21:25.458Z,20.60
2018-10-19T01:23:53.302Z,20.60
2018-10-19T01:26:21.242Z,20.60
2018-10-19T01:28:49.476Z,20.60
2018-10-19T01:31:17.221Z,20.60
2018-10-19T01:33:45.212Z,20.60
2018-10-19T01:36:12.840Z,20.60
2018-10-19T01:38:40.367Z,20.60
2018-10-19T01:41:07.939Z,20.60
2018-10-19T01:43:35.481Z,20.60
2018-10-19T01:46:03.052Z,20.60
2018-10-19T01:48:30.620Z,20.60
2018-10-19T01:50:58.679Z,20.60
2018-10-19T01:53:26.250Z,20.60
2018-10-19T01:55:54.036Z,20.60
2018-10-19T01:58:21.628Z,20.50
2018-10-19T02:00:49.313Z,20.50
2018-10-19T02:03:17.408Z,20.60
2018-10-19T02:05:45.241Z,20.60
2018-10-19T02:08:13.497Z,20.60
2018-10-19T02:10:41.044Z,20.60
2018-10-19T02:13:09.603Z,20.60
2018-10-19T02:15:37.541Z,20.60
2018-10-19T02:18:05.255Z,20.60
2018-10-19T02:20:32.904Z,20.60
2018-10-19T02:23:00.589Z,20.60
2018-10-19T02:25:28.119Z,20.60
2018-10-19T02:27:55.704Z,20.60
2018-10-19T02:30:23.427Z,20.60
2018-10-19T02:32:51.277Z,20.60
2018-10-19T02:35:19.277Z,20.60
2018-10-19T02:37:46.943Z,20.60
2018-10-19T02:40:14.883Z,20.60
2018-10-19T02:42:42.508Z,20.60
2018-10-19T02:45:10.894Z,20.60
2018-10-19T02:47:38.458Z,20.60
2018-10-19T02:50:06.324Z,20.60
2018-10-19T02:52:33.860Z,20.60
2018-10-19T02:55:01.581Z,20.60
2018-10-19T02:57:29.159Z,20.60
2018-10-19T02:59:56.773Z,20.50
2018-10-19T03:02:24.521Z,20.60
2018-10-19T03:04:52.971Z,20.50
2018-10-19T03:07:20.722Z,20.50
2018-10-19T03:09:48.514Z,20.50
2018-10-19T03:12:16.307Z,20.60
2018-10-19T03:14:44.147Z,20.60
2018-10-19T03:17:12.122Z,20.50
2018-10-19T03:19:39.655Z,20.60
2018-10-19T03:22:07.510Z,20.50
2018-10-19T03:24:35.045Z,20.60
2018-10-19T03:27:02.679Z,20.50
2018-10-19T03:29:30.229Z,20.60
2018-10-19T03:31:57.800Z,20.60
2018-10-19T03:34:25.492Z,20.60
2018-10-19T03:36:53.498Z,20.60
2018-10-19T03:39:21.187Z,20.50
2018-10-19T03:41:49.119Z,20.60
2018-10-19T03:44:16.973Z,20.50
2018-10-19T03:46:44.856Z,20.50
2018-10-19T03:49:12.712Z,20.50
2018-10-19T03:51:40.246Z,20.50
2018-10-19T03:54:07.866Z,20.60
2018-10-19T03:56:35.455Z,20.50
2018-10-19T03:59:03.027Z,20.50
2018-10-19T04:01:30.616Z,20.50
2018-10-19T04:03:58.159Z,20.50
2018-10-19T04:06:25.699Z,20.50
2018-10-19T04:08:53.335Z,20.50
2018-10-19T04:11:21.056Z,20.50
2018-10-19T04:13:48.937Z,20.50
2018-10-19T04:16:16.756Z,20.50
2018-10-19T04:18:45.006Z,20.50
2018-10-19T04:21:12.648Z,20.60
2018-10-19T04:23:40.304Z,20.60
2018-10-19T04:26:07.891Z,20.60
2018-10-19T04:28:35.470Z,20.60
2018-10-19T04:31:03.053Z,20.70
2018-10-19T04:33:30.667Z,20.60
2018-10-19T04:35:58.252Z,20.60
2018-10-19T04:38:25.822Z,20.60
2018-10-19T04:40:53.462Z,20.70
2018-10-19T04:43:21.252Z,20.60
2018-10-19T04:45:49.220Z,20.60
2018-10-19T04:48:16.982Z,20.70
2018-10-19T04:50:44.910Z,20.60
2018-10-19T04:53:13.725Z,20.60
2018-10-19T04:55:41.381Z,20.70
2018-10-19T04:58:09.060Z,20.70
2018-10-19T05:00:36.742Z,20.70
2018-10-19T05:03:04.569Z,20.70
2018-10-19T05:05:32.213Z,20.70
2018-10-19T05:07:59.706Z,20.70
2018-10-19T05:10:27.186Z,20.70
2018-10-19T05:12:56.356Z,20.70
2018-10-19T05:15:23.960Z,20.70
2018-10-19T05:17:51.657Z,20.70
2018-10-19T05:20:19.667Z,20.70
2018-10-19T05:22:47.547Z,20.70
2018-10-19T05:25:15.850Z,20.70
2018-10-19T05:27:43.523Z,20.70
2018-10-19T05:30:12.421Z,20.70
2018-10-19T05:32:40.823Z,20.70
2018-10-19T05:35:08.901Z,20.70
2018-10-19T05:37:37.624Z,20.70
2018-10-19T05:40:05.583Z,20.70
2018-10-19T05:42:34.967Z,20.70
2018-10-19T05:45:02.545Z,20.70
2018-10-19T05:47:30.220Z,20.80
2018-10-19T05:49:57.888Z,20.70
2018-10-19T05:52:25.515Z,20.80
2018-10-19T05:54:53.182Z,20.80
2018-10-19T05:57:20.884Z,20.70
2018-10-19T05:59:48.588Z,20.80
2018-10-19T06:02:19.608Z,20.70
2018-10-19T06:04:47.828Z,20.80
2018-10-19T06:07:15.914Z,20.80
2018-10-19T06:09:43.634Z,20.80
2018-10-19T06:12:11.160Z,20.80
2018-10-19T06:14:38.787Z,20.70
2018-10-19T06:17:06.421Z,20.70
2018-10-19T06:19:34.024Z,20.70
2018-10-19T06:22:01.573Z,20.80
2018-10-19T06:24:29.184Z,20.70
2018-10-19T06:26:56.721Z,20.70
2018-10-19T06:29:24.287Z,20.70
2018-10-19T06:31:51.965Z,20.80
2018-10-19T06:34:19.673Z,20.70
2018-10-19T06:36:47.423Z,20.70
2018-10-19T06:39:15.247Z,20.70
2018-10-19T06:41:42.965Z,20.70
2018-10-19T06:44:10.669Z,20.70
2018-10-19T06:46:38.261Z,20.70
2018-10-19T06:49:05.929Z,20.70
2018-10-19T06:51:33.585Z,20.70
2018-10-19T06:54:01.194Z,20.70
2018-10-19T06:56:28.784Z,20.70
2018-10-19T06:58:56.460Z,20.70
2018-10-19T07:01:24.051Z,20.70
2018-10-19T07:03:52.077Z,20.70
2018-10-19T07:06:19.877Z,20.70
2018-10-19T07:08:47.995Z,20.70
2018-10-19T07:11:16.467Z,20.70
2018-10-19T07:13:44.371Z,20.60
2018-10-19T07:16:11.998Z,20.60
2018-10-19T07:18:39.601Z,20.70
2018-10-19T07:21:07.172Z,20.60
2018-10-19T07:23:34.736Z,20.70
2018-10-19T07:26:02.401Z,20.70
2018-10-19T07:28:29.939Z,20.70
2018-10-19T07:30:57.548Z,20.70
2018-10-19T07:33:25.079Z,20.70
2018-10-19T07:35:52.719Z,20.70
2018-10-19T07:38:20.662Z,20.60
2018-10-19T07:40:48.696Z,20.60
2018-10-19T07:43:16.859Z,20.70
2018-10-19T07:45:44.697Z,20.70
2018-10-19T07:48:12.898Z,20.70
2018-10-19T07:50:40.376Z,20.60
2018-10-19T07:53:07.978Z,20.60
2018-10-19T07:55:35.480Z,20.60
2018-10-19T07:58:03.049Z,20.60
2018-10-19T08:00:30.609Z,20.70
2018-10-19T08:02:58.247Z,20.70
2018-10-19T08:05:26.196Z,20.70
2018-10-19T08:07:54.145Z,20.60
2018-10-19T08:10:21.840Z,20.70
2018-10-19T08:12:49.808Z,20.70
2018-10-19T08:15:17.766Z,20.70
2018-10-19T08:17:46.112Z,20.60
2018-10-19T08:20:14.216Z,20.60
2018-10-19T08:22:41.762Z,20.70
2018-10-19T08:25:09.351Z,20.60
2018-10-19T08:27:37.017Z,20.70
2018-10-19T08:30:04.639Z,20.70
2018-10-19T08:32:32.233Z,20.70
2018-10-19T08:34:59.823Z,20.70
2018-10-19T08:37:27.462Z,20.60
2018-10-19T08:39:55.127Z,20.60
2018-10-19T08:42:22.709Z,20.60
2018-10-19T08:44:50.438Z,20.60
2018-10-19T08:47:18.369Z,20.60
2018-10-19T08:49:46.176Z,20.60
2018-10-19T08:52:14.531Z,20.60
2018-10-19T08:54:42.334Z,20.60
2018-10-19T08:57:09.881Z,20.60
2018-10-19T08:59:37.363Z,20.60
2018-10-19T09:02:05.112Z,20.60
2018-10-19T09:04:32.671Z,20.60
2018-10-19T09:07:00.250Z,20.60
2018-10-19T09:09:27.874Z,20.60
2018-10-19T09:11:55.585Z,20.60
2018-10-19T09:14:28.854Z,20.60
2018-10-19T09:16:56.471Z,20.60
2018-10-19T09:19:23.991Z,20.60
2018-10-19T09:21:51.785Z,20.60
2018-10-19T09:24:19.559Z,20.60
2018-10-19T09:26:47.457Z,20.60
2018-10-19T09:29:15.625Z,20.60
2018-10-19T09:31:43.356Z,20.60
2018-10-19T09:34:10.956Z,20.60
2018-10-19T09:36:38.726Z,20.60
2018-10-19T09:39:08.245Z,20.60
2018-10-19T09:41:35.758Z,20.60
2018-10-19T09:44:03.315Z,20.60
2018-10-19T09:46:30.884Z,20.60
2018-10-19T09:48:58.416Z,20.60
2018-10-19T09:51:25.953Z,20.60
2018-10-19T09:53:53.557Z,20.50
2018-10-19T09:56:21.405Z,20.50
2018-10-19T09:58:49.241Z,20.50
2018-10-19T10:01:22.494Z,20.50
2018-10-19T10:03:50.417Z,20.50
2018-10-19T10:06:18.278Z,20.50
2018-10-19T10:08:46.243Z,20.50
2018-10-19T10:11:14.463Z,20.50
2018-10-19T10:13:42.036Z,20.50
2018-10-19T10:16:10.132Z,20.50
2018-10-19T10:18:37.880Z,20.50
2018-10-19T10:21:05.666Z,20.50
2018-10-19T10:23:33.550Z,20.50
2018-10-19T10:26:01.198Z,20.50
2018-10-19T10:28:28.725Z,20.50
2018-10-19T10:30:56.313Z,20.60
2018-10-19T10:33:23.901Z,20.60
2018-10-19T10:35:51.656Z,20.50
2018-10-19T10:38:19.305Z,20.60
2018-10-19T10:40:47.337Z,20.60
2018-10-19T10:43:15.735Z,20.60
2018-10-19T10:45:43.676Z,20.60
2018-10-19T10:48:11.260Z,20.60
2018-10-19T10:50:39.080Z,20.60
2018-10-19T10:53:06.749Z,20.60
2018-10-19T10:55:34.283Z,20.60
2018-10-19T10:58:01.914Z,20.60
2018-10-19T11:00:29.656Z,20.60
2018-10-19T11:02:57.227Z,20.60
2018-10-19T11:05:24.861Z,20.60
2018-10-19T11:07:52.719Z,20.60
2018-10-19T11:10:20.428Z,20.60
2018-10-19T11:12:48.691Z,20.60
2018-10-19T11:15:16.522Z,20.50
2018-10-19T11:17:44.437Z,20.50
2018-10-19T11:20:12.057Z,20.50
2018-10-19T11:22:39.672Z,20.50
2018-10-19T11:25:07.586Z,20.50
2018-10-19T11:27:35.128Z,20.50
2018-10-19T11:30:02.677Z,20.50
2018-10-19T11:32:30.243Z,20.50
2018-10-19T11:34:57.788Z,20.50
2018-10-19T11:37:25.392Z,20.40
2018-10-19T11:39:59.058Z,20.40
2018-10-19T11:42:26.613Z,20.40
2018-10-19T11:44:54.165Z,20.40
2018-10-19T11:47:22.034Z,20.40
2018-10-19T11:49:49.958Z,20.40
2018-10-19T11:52:17.969Z,20.40
2018-10-19T11:54:45.961Z,20.50
2018-10-19T11:57:14.112Z,20.50
2018-10-19T11:59:41.615Z,20.50
2018-10-19T12:02:09.972Z,20.50
2018-10-19T12:04:37.842Z,20.50
2018-10-19T12:07:05.754Z,20.40
2018-10-19T12:09:33.263Z,20.40
2018-10-19T12:12:00.804Z,20.40
2018-10-19T12:14:28.401Z,20.40
2018-10-19T12:16:56.203Z,20.40
2018-10-19T12:19:23.654Z,20.40
2018-10-19T12:21:51.477Z,20.40
2018-10-19T12:24:19.703Z,20.40
2018-10-19T12:26:47.566Z,20.40
2018-10-19T12:29:15.466Z,20.50
2018-10-19T12:31:43.314Z,20.50
2018-10-19T12:34:10.912Z,20.50
2018-10-19T12:36:38.523Z,20.50
2018-10-19T12:39:07.326Z,20.40
2018-10-19T12:41:34.964Z,20.40
2018-10-19T12:44:02.514Z,20.40
2018-10-19T12:46:39.151Z,20.50
2018-10-19T12:49:06.884Z,20.40
2018-10-19T12:51:34.743Z,20.50
2018-10-19T12:54:02.452Z,20.50
2018-10-19T12:56:29.979Z,20.50
2018-10-19T12:58:58.081Z,20.50
2018-10-19T13:01:27.238Z,20.50
2018-10-19T13:03:54.856Z,20.40
2018-10-19T13:06:22.662Z,20.50
2018-10-19T13:08:50.816Z,20.50
2018-10-19T13:11:18.570Z,20.50
2018-10-19T13:13:46.621Z,20.50
2018-10-19T13:16:14.901Z,20.50
2018-10-19T13:18:42.766Z,20.50
2018-10-19T13:21:10.348Z,20.50
2018-10-19T13:23:37.904Z,20.50
2018-10-19T13:26:05.483Z,20.50
2018-10-19T13:28:33.078Z,20.50
2018-10-19T13:31:00.671Z,20.50
2018-10-19T13:33:28.293Z,20.50
2018-10-19T13:35:56.149Z,20.50
2018-10-19T13:38:24.387Z,20.40
2018-10-19T13:40:53.205Z,20.40
2018-10-19T13:43:21.212Z,20.50
2018-10-19T13:45:49.142Z,20.40
2018-10-19T13:48:17.462Z,20.40
2018-10-19T13:50:45.467Z,20.40
2018-10-19T13:53:13.493Z,20.40
2018-10-19T13:55:41.105Z,20.50
2018-10-19T13:58:08.865Z,20.50
2018-10-19T14:00:37.059Z,20.50
2018-10-19T14:03:05.607Z,20.50
2018-10-19T14:05:33.332Z,20.40
2018-10-19T14:08:01.413Z,20.40
2018-10-19T14:10:29.038Z,20.40
2018-10-19T14:12:58.101Z,20.40
2018-10-19T14:15:26.064Z,20.40
2018-10-19T14:17:53.672Z,20.40
2018-10-19T14:20:21.388Z,20.40
2018-10-19T14:22:49.126Z,20.40
2018-10-19T14:25:16.996Z,20.30
2018-10-19T14:27:45.464Z,20.30
2018-10-19T14:30:14.479Z,20.40
2018-10-19T14:32:43.075Z,20.40
2018-10-19T14:35:11.555Z,20.30
2018-10-19T14:37:40.339Z,20.30
2018-10-19T14:40:09.871Z,20.30
2018-10-19T14:42:38.336Z,20.30
2018-10-19T14:45:06.379Z,20.30
2018-10-19T14:47:34.249Z,20.30
2018-10-19T14:50:01.852Z,20.30
2018-10-19T14:52:29.459Z,20.30
2018-10-19T14:54:57.045Z,20.20
2018-10-19T14:57:24.845Z,20.20
2018-10-19T14:59:52.644Z,20.20
2018-10-19T15:02:20.597Z,20.20
2018-10-19T15:04:48.591Z,20.20
2018-10-19T15:07:17.115Z,20.20
2018-10-19T15:09:45.235Z,20.20
2018-10-19T15:12:13.933Z,20.20
2018-10-19T15:14:41.577Z,20.20
2018-10-19T15:17:09.235Z,20.20
2018-10-19T15:19:36.910Z,20.20
2018-10-19T15:22:04.534Z,20.20
2018-10-19T15:24:32.176Z,20.20
2018-10-19T15:27:00.262Z,20.20
2018-10-19T15:29:28.101Z,20.20
2018-10-19T15:31:55.842Z,20.20
2018-10-19T15:34:23.509Z,20.20
2018-10-19T15:36:51.446Z,20.20
2018-10-19T15:39:19.391Z,20.20
2018-10-19T15:41:47.462Z,20.20
2018-10-19T15:44:15.544Z,20.20
2018-10-19T15:46:43.520Z,20.20
2018-10-19T15:49:11.191Z,20.20
2018-10-19T15:51:38.728Z,20.20
2018-10-19T15:54:06.386Z,20.20
2018-10-19T15:56:33.954Z,20.30
2018-10-19T15:59:01.646Z,20.30
2018-10-19T16:01:29.234Z,20.30
2018-10-19T16:03:56.820Z,20.30
2018-10-19T16:06:24.438Z,20.30
2018-10-19T16:08:52.189Z,20.20
2018-10-19T16:11:19.919Z,20.30
2018-10-19T16:13:47.958Z,20.30
2018-10-19T16:16:16.699Z,20.30
2018-10-19T16:18:44.918Z,20.30
2018-10-19T16:21:13.138Z,20.30
2018-10-19T16:23:40.745Z,20.30
2018-10-19T16:26:08.340Z,20.30
2018-10-19T16:28:36.364Z,20.30
2018-10-19T16:31:03.909Z,20.30
2018-10-19T16:33:31.493Z,20.30
2018-10-19T16:35:59.044Z,20.30
2018-10-19T16:38:26.598Z,20.30
2018-10-19T16:40:54.160Z,20.30
2018-10-19T16:43:21.931Z,20.30
2018-10-19T16:45:49.696Z,20.30
2018-10-19T16:48:17.522Z,20.30
2018-10-19T16:50:45.258Z,20.30
2018-10-19T16:53:12.938Z,20.30
2018-10-19T16:55:40.545Z,20.30
2018-10-19T16:58:08.256Z,20.30
2018-10-19T17:00:35.858Z,20.30
2018-10-19T17:03:03.608Z,20.30
2018-10-19T17:05:31.239Z,20.30
2018-10-19T17:07:58.786Z,20.30
2018-10-19T17:10:27.628Z,20.30
2018-10-19T17:12:55.528Z,20.30
2018-10-19T17:15:23.435Z,20.40
2018-10-19T17:17:51.820Z,20.40
2018-10-19T17:20:19.676Z,20.40
2018-10-19T17:22:47.643Z,20.30
2018-10-19T17:25:17.957Z,20.30
2018-10-19T17:27:45.968Z,20.30
2018-10-19T17:30:19.270Z,20.30
2018-10-19T17:32:47.768Z,20.40
2018-10-19T17:35:15.667Z,20.40
2018-10-19T17:37:43.429Z,20.40
2018-10-19T17:40:11.139Z,20.40
2018-10-19T17:42:38.757Z,20.40
2018-10-19T17:45:06.885Z,20.40
2018-10-19T17:47:34.508Z,20.40
2018-10-19T17:50:02.064Z,20.40
2018-10-19T17:52:29.651Z,20.40
2018-10-19T17:54:57.380Z,20.40
2018-10-19T17:57:25.030Z,20.40
2018-10-19T17:59:52.764Z,20.40
2018-10-19T18:02:20.520Z,20.40
2018-10-19T18:04:48.440Z,20.40
2018-10-19T18:07:16.365Z,20.40
2018-10-19T18:09:44.234Z,20.40
2018-10-19T18:12:13.304Z,20.40
2018-10-19T18:14:40.991Z,20.40
2018-10-19T18:17:09.592Z,20.30
2018-10-19T18:19:37.326Z,20.40
2018-10-19T18:22:05.265Z,20.40
2018-10-19T18:24:32.637Z,20.40
2018-10-19T18:27:00.247Z,20.40
2018-10-19T18:29:27.806Z,20.30
2018-10-19T18:31:55.652Z,20.30
2018-10-19T18:34:23.665Z,20.30
2018-10-19T18:36:51.542Z,20.30
2018-10-19T18:39:19.427Z,20.30
2018-10-19T18:41:48.528Z,20.30
2018-10-19T18:44:17.593Z,20.30
2018-10-19T18:46:45.667Z,20.30
2018-10-19T18:49:13.559Z,20.30
2018-10-19T18:51:41.364Z,20.30
2018-10-19T18:54:09.042Z,20.30
2018-10-19T18:56:36.675Z,20.30
2018-10-19T18:59:04.318Z,20.30
2018-10-19T19:01:31.856Z,20.30
2018-10-19T19:03:59.427Z,20.30
2018-10-19T19:06:27.078Z,20.30
2018-10-19T19:08:54.676Z,20.30
2018-10-19T19:11:22.416Z,20.30
2018-10-19T19:13:50.975Z,20.30
2018-10-19T19:16:24.392Z,20.30
2018-10-19T19:18:52.293Z,20.30
2018-10-19T19:21:20.354Z,20.30
2018-10-19T19:23:53.771Z,20.30
2018-10-19T19:26:22.778Z,20.30
2018-10-19T19:28:51.001Z,20.30
2018-10-19T19:31:18.952Z,20.30
2018-10-19T19:33:52.123Z,20.30
2018-10-19T19:36:20.041Z,20.20
2018-10-19T19:38:48.234Z,20.10
2018-10-19T19:41:21.808Z,20.10
2018-10-19T19:43:50.887Z,20.00
2018-10-19T19:46:21.544Z,20.00
2018-10-19T19:48:54.808Z,20.10
2018-10-19T19:51:24.467Z,20.10
2018-10-19T19:53:52.938Z,20.20
2018-10-19T19:56:21.302Z,20.20
2018-10-19T19:58:49.394Z,20.20
2018-10-19T20:01:18.213Z,20.20
2018-10-19T20:03:47.043Z,20.20
2018-10-19T20:06:14.745Z,20.20
2018-10-19T20:08:42.985Z,20.20
2018-10-19T20:11:11.419Z,20.20
2018-10-19T20:13:39.355Z,20.20
2018-10-19T20:16:07.039Z,20.20
2018-10-19T20:18:36.289Z,20.10
2018-10-19T20:21:04.732Z,20.10
2018-10-19T20:23:33.877Z,20.10
2018-10-19T20:26:02.429Z,20.10
2018-10-19T20:28:31.251Z,20.10
2018-10-19T20:30:59.303Z,20.10
2018-10-19T20:33:27.411Z,20.10
2018-10-19T20:35:55.189Z,20.10
2018-10-19T20:38:23.333Z,20.10
2018-10-19T20:40:51.882Z,20.10
2018-10-19T20:43:19.499Z,20.10
2018-10-19T20:45:48.331Z,20.10
2018-10-19T20:48:15.948Z,20.10
2018-10-19T20:50:44.253Z,20.10
2018-10-19T20:53:12.122Z,20.10
2018-10-19T20:55:40.050Z,20.10
2018-10-19T20:58:07.799Z,20.10
2018-10-19T21:00:36.471Z,20.10
2018-10-19T21:03:04.730Z,20.10
2018-10-19T21:05:32.504Z,20.10
2018-10-19T21:08:01.199Z,20.10
2018-10-19T21:10:30.885Z,20.10
2018-10-19T21:12:58.834Z,20.10
2018-10-19T21:15:26.885Z,20.10
2018-10-19T21:17:54.969Z,20.10
2018-10-19T21:20:23.086Z,20.10
2018-10-19T21:22:50.835Z,20.10
2018-10-19T21:25:18.494Z,20.10
2018-10-19T21:27:46.183Z,20.10
2018-10-19T21:30:13.946Z,20.10
2018-10-19T21:32:41.781Z,20.10
2018-10-19T21:35:09.484Z,20.10
2018-10-19T21:37:37.158Z,20.20
2018-10-19T21:40:05.258Z,20.20
2018-10-19T21:42:33.510Z,20.20
2018-10-19T21:45:01.336Z,20.20
2018-10-19T21:47:29.242Z,20.20
2018-10-19T21:49:57.284Z,20.20
2018-10-19T21:52:25.104Z,20.20
2018-10-19T21:54:53.067Z,20.20
2018-10-19T21:57:20.909Z,20.20
2018-10-19T21:59:48.622Z,20.20
2018-10-19T22:02:22.140Z,20.20
2018-10-19T22:04:49.815Z,20.20
2018-10-19T22:07:17.597Z,20.20
2018-10-19T22:09:45.311Z,20.20
2018-10-19T22:12:13.029Z,20.20
2018-10-19T22:14:40.679Z,20.20
2018-10-19T22:22:37.713Z,20.20
2018-10-19T22:25:05.556Z,20.20
2018-10-19T22:27:33.259Z,20.20
2018-10-19T22:30:01.173Z,20.20
2018-10-19T22:32:28.978Z,20.20
2018-10-19T22:34:57.952Z,20.20
2018-10-19T22:37:25.675Z,20.20
2018-10-19T22:39:54.624Z,20.20
2018-10-19T22:42:22.251Z,20.20
2018-10-19T22:44:50.283Z,20.20
2018-10-19T22:47:18.005Z,20.20
2018-10-19T22:49:45.605Z,20.20
2018-10-19T22:52:13.187Z,20.20
2018-10-19T22:54:41.097Z,20.20
2018-10-19T22:57:08.691Z,20.20
2018-10-19T22:59:36.444Z,20.20
2018-10-19T23:02:04.803Z,20.20
2018-10-19T23:04:32.377Z,20.20
2018-10-19T23:07:00.039Z,20.20
2018-10-19T23:09:27.797Z,20.20
2018-10-19T23:11:55.575Z,20.20
2018-10-19T23:14:23.572Z,20.20
2018-10-19T23:16:51.235Z,20.20
2018-10-19T23:19:18.830Z,20.20
2018-10-19T23:21:46.508Z,20.20
2018-10-19T23:24:14.039Z,20.20
2018-10-19T23:26:41.632Z,20.20
2018-10-19T23:29:09.292Z,20.20
2018-10-19T23:31:36.978Z,20.20
2018-10-19T23:34:04.701Z,20.20
2018-10-19T23:36:32.330Z,20.20
2018-10-19T23:39:00.104Z,20.20
2018-10-19T23:41:27.715Z,20.20
2018-10-19T23:43:55.414Z,20.20
2018-10-19T23:46:23.222Z,20.10
2018-10-19T23:48:51.339Z,20.10
2018-10-19T23:51:18.923Z,20.20
2018-10-19T23:53:46.568Z,20.20
2018-10-19T23:56:14.245Z,20.20
2018-10-19T23:58:41.897Z,20.20
